createdAt,value
2023-05-19T00:01:56.614Z,11.29
2023-05-19T00:04:23.404Z,10.77
2023-05-19T00:06:51.664Z,10.70
2023-05-19T00:09:18.353Z,10.19
2023-05-19T00:11:45.188Z,10.23
2023-05-19T00:14:12.041Z,10.01
2023-05-19T00:16:38.835Z,9.97
2023-05-19T00:19:06.449Z,9.81
2023-05-19T00:21:33.196Z,10.18
2023-05-19T00:23:59.894Z,9.98
2023-05-19T00:26:28.228Z,9.47
2023-05-19T00:29:00.904Z,9.75
2023-05-19T00:31:27.707Z,9.93
2023-05-19T00:33:55.076Z,10.00
2023-05-19T00:36:21.749Z,9.97
2023-05-19T00:38:49.309Z,10.36
2023-05-19T00:41:15.929Z,9.79
2023-05-19T00:43:42.793Z,10.22
2023-05-19T00:46:10.878Z,9.73
2023-05-19T00:48:37.632Z,10.64
2023-05-19T00:51:06.484Z,10.68
2023-05-19T00:53:34.667Z,10.28
2023-05-19T00:56:02.909Z,10.11
2023-05-19T00:58:31.027Z,10.57
2023-05-19T01:01:03.870Z,10.62
2023-05-19T01:03:32.100Z,10.77
2023-05-19T01:06:01.687Z,10.58
2023-05-19T01:08:29.290Z,11.20
2023-05-19T01:10:55.979Z,10.58
2023-05-19T01:13:23.042Z,10.97
2023-05-19T01:15:55.912Z,10.42
2023-05-19T01:18:29.530Z,10.95
2023-05-19T01:21:10.626Z,10.94
2023-05-19T01:23:49.451Z,11.05
2023-05-19T01:26:34.479Z,10.48
2023-05-19T01:29:21.319Z,10.84
2023-05-19T01:31:50.393Z,10.69
2023-05-19T01:34:17.459Z,10.56
2023-05-19T01:36:49.816Z,11.02
2023-05-19T01:39:17.177Z,11.58
2023-05-19T01:41:45.709Z,11.30
2023-05-19T01:44:12.441Z,10.95
2023-05-19T01:46:40.506Z,11.39
2023-05-19T01:49:10.402Z,10.88
2023-05-19T01:51:37.260Z,11.06
2023-05-19T01:54:05.277Z,11.17
2023-05-19T01:56:58.154Z,10.90
2023-05-19T01:59:38.236Z,11.39
2023-05-19T02:02:15.887Z,10.95
2023-05-19T02:04:46.079Z,10.80
2023-05-19T02:07:32.589Z,10.98
2023-05-19T02:10:06.926Z,11.09
2023-05-19T02:12:40.162Z,10.86
2023-05-19T02:15:09.715Z,11.10
2023-05-19T02:17:41.564Z,11.14
2023-05-19T02:20:10.444Z,10.69
2023-05-19T02:22:37.134Z,11.25
2023-05-19T02:25:03.980Z,11.20
2023-05-19T02:27:33.564Z,10.67
2023-05-19T02:30:00.230Z,10.84
2023-05-19T02:32:26.832Z,10.83
2023-05-19T02:34:56.447Z,10.71
2023-05-19T02:37:28.498Z,11.12
2023-05-19T02:39:55.282Z,10.79
2023-05-19T02:42:22.031Z,10.59
2023-05-19T02:44:48.827Z,10.94
2023-05-19T02:47:15.506Z,10.65
2023-05-19T02:49:42.972Z,10.94
2023-05-19T02:52:09.604Z,10.99
2023-05-19T02:54:36.597Z,10.84
2023-05-19T02:57:03.265Z,11.23
2023-05-19T02:59:30.035Z,11.39
2023-05-19T03:01:59.918Z,10.81
2023-05-19T03:04:27.415Z,11.36
2023-05-19T03:06:57.733Z,11.48
2023-05-19T03:09:24.640Z,11.10
2023-05-19T03:11:51.553Z,11.72
2023-05-19T03:14:18.716Z,11.79
2023-05-19T03:16:45.578Z,11.02
2023-05-19T03:19:12.809Z,11.29
2023-05-19T03:21:39.638Z,11.40
2023-05-19T03:24:06.664Z,11.91
2023-05-19T03:26:33.445Z,11.73
2023-05-19T03:29:00.104Z,11.42
2023-05-19T03:31:26.965Z,11.16
2023-05-19T03:33:54.219Z,11.96
2023-05-19T03:36:23.263Z,11.33
2023-05-19T03:38:49.878Z,11.76
2023-05-19T03:41:16.446Z,11.47
2023-05-19T03:43:43.824Z,11.70
2023-05-19T03:46:10.599Z,11.53
2023-05-19T03:48:51.860Z,11.30
2023-05-19T03:51:21.031Z,10.90
2023-05-19T03:53:50.856Z,11.16
2023-05-19T03:56:18.854Z,11.21
2023-05-19T03:58:47.036Z,11.00
2023-05-19T04:01:14.763Z,11.91
2023-05-19T04:03:41.727Z,11.58
2023-05-19T04:06:08.879Z,10.69
2023-05-19T04:08:35.437Z,10.60
2023-05-19T04:11:02.452Z,10.96
2023-05-19T04:13:29.449Z,10.99
2023-05-19T04:15:56.268Z,11.16
2023-05-19T04:18:23.001Z,11.04
2023-05-19T04:20:49.584Z,10.93
2023-05-19T04:23:16.190Z,11.31
2023-05-19T04:25:43.874Z,10.83
2023-05-19T04:28:10.473Z,11.32
2023-05-19T04:30:38.553Z,11.13
2023-05-19T04:33:05.398Z,11.14
2023-05-19T04:35:32.183Z,11.39
2023-05-19T04:38:01.591Z,11.35
2023-05-19T04:40:31.751Z,11.59
2023-05-19T04:42:58.998Z,11.21
2023-05-19T04:45:26.083Z,11.31
2023-05-19T04:47:58.253Z,10.98
2023-05-19T04:50:25.307Z,11.63
2023-05-19T04:52:52.713Z,11.42
2023-05-19T04:55:19.632Z,11.20
2023-05-19T04:57:48.231Z,11.10
2023-05-19T05:00:15.440Z,11.66
2023-05-19T05:02:52.434Z,11.67
2023-05-19T05:05:21.094Z,11.94
2023-05-19T05:07:47.818Z,11.13
2023-05-19T05:10:14.734Z,11.13
2023-05-19T05:12:41.482Z,11.69
2023-05-19T05:15:08.550Z,11.37
2023-05-19T05:17:37.725Z,11.28
2023-05-19T05:20:06.246Z,11.13
2023-05-19T05:22:33.540Z,11.28
2023-05-19T05:25:01.277Z,11.06
2023-05-19T05:27:27.947Z,11.25
2023-05-19T05:29:54.556Z,11.03
2023-05-19T05:32:21.787Z,11.03
2023-05-19T05:34:48.681Z,11.65
2023-05-19T05:37:15.786Z,11.08
2023-05-19T05:39:42.550Z,11.34
2023-05-19T05:42:10.580Z,11.37
2023-05-19T05:44:38.543Z,11.04
2023-05-19T05:47:06.503Z,10.69
2023-05-19T05:49:36.508Z,10.47
2023-05-19T05:52:06.278Z,10.05
2023-05-19T05:54:39.505Z,9.89
2023-05-19T05:57:07.329Z,10.05
2023-05-19T05:59:34.468Z,9.38
2023-05-19T06:02:01.428Z,9.09
2023-05-19T06:04:28.606Z,9.19
2023-05-19T06:07:00.881Z,9.22
2023-05-19T06:09:30.878Z,8.94
2023-05-19T06:12:00.130Z,8.81
2023-05-19T06:14:30.198Z,8.49
2023-05-19T06:17:35.436Z,8.25
2023-05-19T06:20:03.348Z,8.29
2023-05-19T06:22:30.102Z,8.55
2023-05-19T06:24:56.986Z,8.33
2023-05-19T06:27:23.637Z,8.72
2023-05-19T06:29:50.236Z,8.57
2023-05-19T06:32:17.111Z,8.09
2023-05-19T06:34:44.018Z,8.35
2023-05-19T06:37:11.174Z,8.07
2023-05-19T06:39:38.266Z,7.83
2023-05-19T06:42:05.057Z,7.95
2023-05-19T06:44:55.654Z,7.98
2023-05-19T06:47:22.541Z,8.15
2023-05-19T06:49:56.172Z,8.13
2023-05-19T06:52:26.674Z,8.05
2023-05-19T06:54:54.287Z,8.22
2023-05-19T06:57:21.567Z,7.94
2023-05-19T06:59:48.155Z,7.26
2023-05-19T07:02:15.126Z,7.70
2023-05-19T07:04:43.089Z,8.03
2023-05-19T07:07:11.383Z,7.68
2023-05-19T07:09:38.063Z,7.75
2023-05-19T07:12:04.891Z,7.54
2023-05-19T07:14:32.156Z,7.30
2023-05-19T07:16:59.312Z,7.39
2023-05-19T07:19:25.994Z,7.07
2023-05-19T07:21:54.943Z,7.07
2023-05-19T07:24:22.184Z,6.93
2023-05-19T07:26:49.079Z,6.88
2023-05-19T07:29:15.634Z,6.78
2023-05-19T07:31:42.295Z,6.92
2023-05-19T07:34:09.135Z,6.49
2023-05-19T07:36:35.961Z,6.53
2023-05-19T07:39:02.802Z,6.36
2023-05-19T07:41:29.571Z,6.83
2023-05-19T07:43:56.220Z,6.74
2023-05-19T07:46:22.857Z,6.55
2023-05-19T07:48:49.592Z,6.41
2023-05-19T07:51:16.489Z,6.39
2023-05-19T07:53:43.080Z,6.38
2023-05-19T07:56:09.675Z,6.52
2023-05-19T07:58:36.284Z,6.18
2023-05-19T08:01:02.900Z,6.05
2023-05-19T08:03:30.610Z,6.14
2023-05-19T08:05:57.471Z,6.04
2023-05-19T08:08:24.162Z,6.00
2023-05-19T08:10:50.694Z,6.22
2023-05-19T08:13:17.347Z,5.68
2023-05-19T08:15:44.051Z,5.50
2023-05-19T08:18:10.865Z,5.52
2023-05-19T08:20:37.594Z,5.25
2023-05-19T08:23:04.299Z,5.39
2023-05-19T08:25:31.284Z,5.11
2023-05-19T08:27:57.882Z,5.08
2023-05-19T08:30:24.581Z,5.40
2023-05-19T08:32:51.313Z,5.17
2023-05-19T08:35:18.050Z,5.01
2023-05-19T08:37:44.638Z,5.07
2023-05-19T08:40:16.197Z,5.16
2023-05-19T08:42:43.120Z,4.78
2023-05-19T08:45:10.017Z,4.99
2023-05-19T08:47:36.779Z,5.00
2023-05-19T08:50:09.704Z,5.14
2023-05-19T08:52:36.365Z,5.17
2023-05-19T08:55:02.943Z,5.06
2023-05-19T08:57:29.683Z,4.73
2023-05-19T08:59:56.651Z,4.65
2023-05-19T09:02:24.264Z,4.48
2023-05-19T09:04:51.917Z,4.27
2023-05-19T09:07:18.838Z,4.35
2023-05-19T09:09:45.674Z,4.76
2023-05-19T09:12:13.658Z,4.54
2023-05-19T09:14:40.373Z,4.68
2023-05-19T09:17:07.155Z,4.29
2023-05-19T09:19:33.898Z,3.19
2023-05-19T09:22:01.277Z,3.01
2023-05-19T09:24:28.288Z,3.81
2023-05-19T09:26:57.942Z,3.68
2023-05-19T09:29:26.623Z,3.39
2023-05-19T09:31:54.673Z,3.20
2023-05-19T09:34:22.429Z,3.43
2023-05-19T09:36:53.521Z,3.15
2023-05-19T09:39:21.526Z,3.51
2023-05-19T09:41:51.769Z,3.16
2023-05-19T09:44:21.164Z,3.24
2023-05-19T09:46:51.498Z,3.07
2023-05-19T09:49:21.676Z,3.12
2023-05-19T09:51:55.129Z,2.99
2023-05-19T09:54:24.165Z,3.13
2023-05-19T09:57:01.457Z,3.18
2023-05-19T09:59:32.365Z,2.71
2023-05-19T10:02:00.712Z,2.93
2023-05-19T10:04:28.729Z,2.71
2023-05-19T10:06:59.336Z,2.98
2023-05-19T10:09:27.585Z,2.87
2023-05-19T10:11:55.356Z,3.10
2023-05-19T10:14:26.979Z,3.09
2023-05-19T10:16:54.596Z,3.12
2023-05-19T10:19:22.850Z,2.91
2023-05-19T10:21:50.155Z,3.25
2023-05-19T10:24:17.712Z,3.01
2023-05-19T10:26:48.580Z,3.05
2023-05-19T10:29:17.871Z,2.93
2023-05-19T10:31:47.581Z,3.15
2023-05-19T10:34:22.136Z,2.83
2023-05-19T10:36:51.370Z,2.91
2023-05-19T10:39:36.611Z,3.06
2023-05-19T10:42:03.236Z,3.17
2023-05-19T10:44:36.059Z,2.97
2023-05-19T10:47:02.780Z,3.08
2023-05-19T10:52:01.252Z,3.32
2023-05-19T10:54:41.057Z,3.05
2023-05-19T10:57:08.273Z,3.16
2023-05-19T10:59:39.672Z,2.97
2023-05-19T11:02:07.296Z,3.02
2023-05-19T11:04:50.137Z,2.63
2023-05-19T11:07:22.330Z,2.76
2023-05-19T11:09:50.179Z,2.69
2023-05-19T11:12:20.111Z,2.62
2023-05-19T11:14:46.727Z,2.95
2023-05-19T11:17:15.053Z,2.79
2023-05-19T11:19:52.750Z,2.66
2023-05-19T11:22:22.634Z,2.95
2023-05-19T11:24:51.970Z,2.74
2023-05-19T11:27:28.071Z,2.92
2023-05-19T11:29:57.064Z,2.92
2023-05-19T11:32:26.799Z,3.03
2023-05-19T11:34:55.150Z,2.81
2023-05-19T11:37:21.988Z,2.94
2023-05-19T11:39:48.564Z,2.87
2023-05-19T11:42:15.919Z,3.04
2023-05-19T11:44:45.965Z,3.17
2023-05-19T11:47:16.941Z,3.03
2023-05-19T11:49:54.803Z,2.96
2023-05-19T11:52:22.490Z,3.15
2023-05-19T11:54:49.618Z,2.95
2023-05-19T11:57:16.558Z,3.29
2023-05-19T11:59:48.154Z,2.99
2023-05-19T12:02:18.932Z,2.94
2023-05-19T12:04:46.488Z,3.04
2023-05-19T12:07:14.606Z,2.78
2023-05-19T12:09:41.261Z,3.02
2023-05-19T12:12:08.179Z,3.14
2023-05-19T12:14:35.826Z,3.16
2023-05-19T12:17:16.557Z,3.22
2023-05-19T12:19:44.916Z,3.10
2023-05-19T12:22:12.499Z,3.37
2023-05-19T12:24:40.335Z,3.23
2023-05-19T12:27:07.481Z,2.98
2023-05-19T12:29:34.530Z,3.38
2023-05-19T12:32:01.305Z,3.11
2023-05-19T12:34:27.934Z,3.00
2023-05-19T12:36:54.644Z,3.03
2023-05-19T12:39:21.582Z,3.30
2023-05-19T12:41:48.242Z,3.27
2023-05-19T12:44:15.277Z,3.20
2023-05-19T12:46:42.520Z,3.54
2023-05-19T12:49:09.084Z,3.30
2023-05-19T12:51:36.756Z,2.99
2023-05-19T12:54:04.652Z,3.20
2023-05-19T12:56:31.279Z,3.38
2023-05-19T12:59:00.637Z,3.15
2023-05-19T13:01:29.461Z,3.32
2023-05-19T13:03:56.399Z,3.25
2023-05-19T13:06:23.222Z,3.32
2023-05-19T13:08:49.822Z,3.25
2023-05-19T13:11:16.505Z,3.22
2023-05-19T13:13:43.187Z,3.51
2023-05-19T13:16:09.809Z,3.53
2023-05-19T13:18:37.577Z,3.33
2023-05-19T13:21:05.740Z,3.40
2023-05-19T13:23:32.410Z,3.32
2023-05-19T13:25:59.363Z,3.56
2023-05-19T13:28:26.307Z,3.23
2023-05-19T13:30:53.065Z,3.52
2023-05-19T13:33:19.781Z,3.34
2023-05-19T13:35:46.342Z,3.87
2023-05-19T13:38:12.993Z,3.38
2023-05-19T13:40:39.701Z,3.36
2023-05-19T13:43:07.326Z,3.30
2023-05-19T13:45:33.942Z,3.47
2023-05-19T13:48:01.104Z,3.46
2023-05-19T13:50:27.956Z,3.19
2023-05-19T13:52:54.553Z,3.16
2023-05-19T13:55:21.382Z,3.33
2023-05-19T13:57:48.049Z,3.11
2023-05-19T14:00:15.302Z,3.44
2023-05-19T14:02:42.453Z,3.57
2023-05-19T14:05:09.257Z,3.44
2023-05-19T14:07:36.254Z,3.34
2023-05-19T14:10:05.483Z,3.44
2023-05-19T14:12:41.308Z,3.30
2023-05-19T14:15:14.496Z,3.41
2023-05-19T14:17:41.502Z,3.22
2023-05-19T14:20:08.537Z,3.27
2023-05-19T14:22:35.190Z,3.13
2023-05-19T14:25:02.085Z,3.22
2023-05-19T14:27:28.663Z,3.15
2023-05-19T14:29:55.253Z,3.05
2023-05-19T14:32:22.324Z,3.04
2023-05-19T14:34:52.709Z,3.03
2023-05-19T14:37:20.082Z,3.13
2023-05-19T14:39:46.710Z,3.06
2023-05-19T14:42:13.493Z,3.00
2023-05-19T14:44:40.127Z,3.07
2023-05-19T14:47:07.497Z,3.29
2023-05-19T14:49:34.304Z,3.10
2023-05-19T14:52:01.137Z,2.71
2023-05-19T14:54:28.153Z,3.12
2023-05-19T14:56:54.782Z,2.93
2023-05-19T14:59:21.724Z,2.73
2023-05-19T15:01:48.427Z,2.60
2023-05-19T15:04:15.414Z,3.20
2023-05-19T15:06:42.243Z,3.28
2023-05-19T15:09:09.370Z,2.99
2023-05-19T15:11:35.934Z,3.22
2023-05-19T15:14:02.529Z,3.14
2023-05-19T15:16:29.196Z,3.10
2023-05-19T15:18:55.941Z,2.94
2023-05-19T15:21:22.538Z,3.17
2023-05-19T15:23:49.194Z,3.47
2023-05-19T15:26:16.035Z,3.18
2023-05-19T15:28:42.790Z,3.57
2023-05-19T15:31:09.384Z,3.46
2023-05-19T15:33:36.206Z,3.45
2023-05-19T15:36:02.893Z,3.31
2023-05-19T15:38:30.099Z,3.46
2023-05-19T15:40:57.331Z,3.47
2023-05-19T15:43:23.971Z,3.61
2023-05-19T15:45:54.756Z,3.67
2023-05-19T15:48:21.439Z,3.26
2023-05-19T15:50:48.765Z,3.53
2023-05-19T15:53:15.407Z,3.78
2023-05-19T15:55:41.974Z,3.38
2023-05-19T15:58:08.862Z,3.50
2023-05-19T16:00:35.752Z,3.57
2023-05-19T16:03:02.805Z,3.74
2023-05-19T16:05:29.426Z,3.54
2023-05-19T16:07:56.231Z,3.69
2023-05-19T16:10:22.848Z,3.72
2023-05-19T16:12:49.416Z,3.64
2023-05-19T16:15:16.077Z,3.49
2023-05-19T16:17:42.704Z,3.50
2023-05-19T16:20:09.672Z,3.54
2023-05-19T16:22:36.368Z,3.35
2023-05-19T16:25:02.934Z,3.21
2023-05-19T16:27:29.460Z,3.29
2023-05-19T16:29:56.290Z,3.31
2023-05-19T16:32:23.021Z,3.41
2023-05-19T16:34:49.616Z,3.38
2023-05-19T16:37:16.241Z,3.52
2023-05-19T16:39:43.786Z,3.49
2023-05-19T16:42:10.364Z,3.69
2023-05-19T16:44:36.948Z,3.33
2023-05-19T16:47:04.131Z,3.67
2023-05-19T16:49:30.865Z,3.25
2023-05-19T16:51:57.480Z,3.13
2023-05-19T16:54:24.114Z,3.25
2023-05-19T16:56:51.264Z,3.22
2023-05-19T16:59:17.955Z,3.63
2023-05-19T17:01:44.634Z,3.58
2023-05-19T17:04:11.826Z,3.63
2023-05-19T17:06:38.399Z,3.21
2023-05-19T17:09:05.062Z,3.30
2023-05-19T17:11:31.737Z,3.66
2023-05-19T17:13:58.294Z,3.50
2023-05-19T17:16:24.894Z,3.53
2023-05-19T17:18:51.678Z,3.38
2023-05-19T17:21:18.271Z,3.14
2023-05-19T17:23:44.910Z,3.02
2023-05-19T17:26:11.572Z,3.45
2023-05-19T17:28:38.244Z,3.36
2023-05-19T17:31:14.654Z,3.35
2023-05-19T17:33:41.602Z,3.27
2023-05-19T17:36:08.623Z,3.53
2023-05-19T17:38:35.614Z,3.54
2023-05-19T17:41:02.831Z,3.58
2023-05-19T17:43:29.452Z,3.59
2023-05-19T17:45:56.548Z,3.33
2023-05-19T17:48:25.843Z,3.63
2023-05-19T17:50:52.486Z,3.64
2023-05-19T17:53:19.349Z,3.26
2023-05-19T17:55:50.560Z,3.30
2023-05-19T17:58:20.742Z,3.25
2023-05-19T18:00:47.389Z,3.36
2023-05-19T18:03:14.333Z,3.31
2023-05-19T18:05:43.198Z,3.18
2023-05-19T18:08:10.889Z,3.16
2023-05-19T18:10:38.261Z,3.41
2023-05-19T18:13:05.316Z,3.17
2023-05-19T18:15:31.976Z,3.25
2023-05-19T18:17:58.897Z,3.56
2023-05-19T18:20:25.631Z,3.48
2023-05-19T18:22:52.324Z,3.33
2023-05-19T18:25:19.997Z,3.40
2023-05-19T18:27:47.434Z,3.38
2023-05-19T18:30:14.148Z,3.50
2023-05-19T18:32:40.817Z,3.57
2023-05-19T18:35:07.974Z,2.96
2023-05-19T18:37:34.808Z,3.09
2023-05-19T18:40:01.536Z,3.05
2023-05-19T18:42:28.146Z,3.22
2023-05-19T18:44:54.747Z,3.40
2023-05-19T18:47:22.994Z,3.33
2023-05-19T18:49:50.091Z,3.36
2023-05-19T18:52:16.744Z,3.62
2023-05-19T18:54:45.834Z,3.49
2023-05-19T18:57:12.709Z,3.30
2023-05-19T18:59:39.316Z,3.19
2023-05-19T19:02:06.794Z,3.53
2023-05-19T19:04:33.834Z,3.54
2023-05-19T19:07:01.294Z,3.41
2023-05-19T19:09:27.881Z,3.38
2023-05-19T19:11:54.490Z,3.54
2023-05-19T19:14:21.056Z,3.55
2023-05-19T19:16:47.718Z,3.38
2023-05-19T19:19:14.486Z,3.33
2023-05-19T19:21:41.828Z,3.02
2023-05-19T19:24:08.505Z,3.05
2023-05-19T19:26:35.164Z,3.11
2023-05-19T19:29:01.726Z,3.30
2023-05-19T19:31:33.128Z,2.68
2023-05-19T19:34:03.579Z,3.04
2023-05-19T19:36:30.332Z,3.04
2023-05-19T19:38:57.045Z,3.53
2023-05-19T19:41:24.977Z,3.78
2023-05-19T19:43:51.576Z,4.25
2023-05-19T19:46:18.186Z,5.87
2023-05-19T19:48:44.785Z,6.48
2023-05-19T19:51:11.517Z,7.90
2023-05-19T19:53:38.075Z,7.60
2023-05-19T19:56:05.579Z,7.74
2023-05-19T19:58:32.247Z,6.39
2023-05-19T20:01:00.318Z,5.78
2023-05-19T20:03:27.066Z,4.84
2023-05-19T20:05:54.536Z,4.73
2023-05-19T20:08:21.712Z,5.09
2023-05-19T20:10:48.386Z,5.34
2023-05-19T20:13:15.984Z,5.60
2023-05-19T20:15:43.365Z,4.75
2023-05-19T20:18:10.774Z,4.50
2023-05-19T20:20:37.934Z,3.71
2023-05-19T20:23:04.571Z,3.45
2023-05-19T20:25:31.714Z,3.64
2023-05-19T20:27:58.375Z,3.30
2023-05-19T20:30:25.043Z,3.20
2023-05-19T20:32:51.600Z,3.07
2023-05-19T20:35:18.210Z,3.52
2023-05-19T20:37:44.900Z,3.27
2023-05-19T20:40:11.674Z,3.01
2023-05-19T20:42:39.263Z,3.36
2023-05-19T20:45:06.234Z,3.50
2023-05-19T20:47:32.895Z,3.36
2023-05-19T20:49:59.494Z,3.47
2023-05-19T20:52:27.033Z,3.36
2023-05-19T20:54:53.793Z,3.27
2023-05-19T20:57:20.500Z,3.24
2023-05-19T20:59:47.094Z,3.32
2023-05-19T21:02:13.759Z,3.07
2023-05-19T21:04:40.461Z,3.19
2023-05-19T21:07:07.143Z,3.09
2023-05-19T21:09:33.748Z,3.43
2023-05-19T21:12:00.450Z,3.25
2023-05-19T21:14:27.052Z,3.24
2023-05-19T21:16:54.252Z,3.29
2023-05-19T21:19:21.638Z,3.13
2023-05-19T21:21:48.435Z,3.26
2023-05-19T21:24:15.739Z,3.33
2023-05-19T21:26:43.084Z,3.18
2023-05-19T21:29:09.876Z,3.27
2023-05-19T21:31:36.604Z,3.28
2023-05-19T21:34:03.747Z,3.12
2023-05-19T21:36:31.733Z,3.42
2023-05-19T21:38:58.364Z,3.54
2023-05-19T21:41:24.981Z,3.33
2023-05-19T21:43:51.606Z,3.43
2023-05-19T21:46:18.254Z,3.53
2023-05-19T21:48:45.006Z,3.26
2023-05-19T21:51:11.619Z,3.46
2023-05-19T21:53:38.174Z,3.55
2023-05-19T21:56:04.885Z,3.49
2023-05-19T21:58:31.427Z,3.38
2023-05-19T22:00:58.166Z,3.34
2023-05-19T22:03:24.919Z,3.36
2023-05-19T22:05:52.943Z,3.48
2023-05-19T22:08:20.112Z,3.17
2023-05-19T22:10:49.289Z,3.28
2023-05-19T22:13:15.860Z,3.39
2023-05-19T22:15:42.508Z,3.69
2023-05-19T22:18:09.111Z,3.49
2023-05-19T22:20:35.896Z,3.51
2023-05-19T22:23:03.658Z,3.96
2023-05-19T22:25:30.616Z,3.72
2023-05-19T22:27:57.221Z,4.09
2023-05-19T22:30:23.922Z,3.95
2023-05-19T22:32:50.705Z,3.83
2023-05-19T22:35:17.416Z,3.82
2023-05-19T22:37:44.017Z,3.87
2023-05-19T22:40:11.087Z,4.00
2023-05-19T22:42:37.742Z,4.04
2023-05-19T22:45:04.735Z,3.98
2023-05-19T22:47:31.424Z,3.95
2023-05-19T22:49:58.043Z,4.25
2023-05-19T22:52:24.823Z,4.32
2023-05-19T22:54:51.407Z,4.70
2023-05-19T22:57:19.291Z,4.59
2023-05-19T22:59:45.961Z,4.05
2023-05-19T23:02:13.240Z,4.45
2023-05-19T23:04:39.970Z,4.57
2023-05-19T23:07:06.635Z,4.70
2023-05-19T23:09:33.780Z,5.02
2023-05-19T23:12:00.325Z,4.86
2023-05-19T23:14:27.067Z,5.08
2023-05-19T23:16:53.887Z,4.97
2023-05-19T23:19:20.573Z,5.00
2023-05-19T23:21:48.903Z,5.02
2023-05-19T23:24:15.990Z,5.06
2023-05-19T23:26:44.015Z,5.14
2023-05-19T23:29:13.743Z,5.04
2023-05-19T23:31:40.929Z,4.95
2023-05-19T23:34:07.683Z,5.48
2023-05-19T23:36:36.450Z,5.50
2023-05-19T23:39:03.212Z,5.39
2023-05-19T23:41:29.839Z,5.57
2023-05-19T23:43:56.478Z,5.84
2023-05-19T23:46:23.096Z,5.62
2023-05-19T23:48:49.754Z,5.87
2023-05-19T23:51:16.384Z,5.64
2023-05-19T23:53:43.101Z,5.70
2023-05-19T23:56:10.486Z,5.66
2023-05-19T23:58:37.083Z,5.61
